sensor_id;sensor_type;location;lat;lon;timestamp;pressure;altitude;pressure_sealevel;temperature;humidity
8703;BME280;9002;42.708;23.186;2023-06-22T00:01:13;95385.25;;;23.98;57.42
8703;BME280;9002;42.708;23.186;2023-06-22T00:03:40;95382.63;;;24.03;57.03
8703;BME280;9002;42.708;23.186;2023-06-22T00:06:07;95378.66;;;24.00;57.58
8703;BME280;9002;42.708;23.186;2023-06-22T00:08:35;95383.44;;;23.66;59.37
8703;BME280;9002;42.708;23.186;2023-06-22T00:11:02;95374.69;;;23.12;61.79
8703;BME280;9002;42.708;23.186;2023-06-22T00:13:28;95375.84;;;22.94;62.78
8703;BME280;9002;42.708;23.186;2023-06-22T00:15:55;95374.97;;;23.11;62.53
8703;BME280;9002;42.708;23.186;2023-06-22T00:18:22;95370.47;;;23.38;61.79
8703;BME280;9002;42.708;23.186;2023-06-22T00:20:54;95378.09;;;23.61;61.24
8703;BME280;9002;42.708;23.186;2023-06-22T00:23:23;95375.03;;;23.48;61.83
8703;BME280;9002;42.708;23.186;2023-06-22T00:25:51;95372.09;;;23.44;61.86
8703;BME280;9002;42.708;23.186;2023-06-22T00:28:18;95358.69;;;23.51;61.53
8703;BME280;9002;42.708;23.186;2023-06-22T00:30:45;95354.31;;;23.34;62.15
8703;BME280;9002;42.708;23.186;2023-06-22T00:33:13;95336.38;;;23.36;61.61
8703;BME280;9002;42.708;23.186;2023-06-22T00:35:41;95341.56;;;23.26;62.17
8703;BME280;9002;42.708;23.186;2023-06-22T00:38:08;95346.66;;;23.33;62.07
8703;BME280;9002;42.708;23.186;2023-06-22T00:40:35;95357.31;;;23.16;62.83
8703;BME280;9002;42.708;23.186;2023-06-22T00:43:05;95352.81;;;23.44;61.90
8703;BME280;9002;42.708;23.186;2023-06-22T00:45:32;95352.94;;;23.54;61.34
8703;BME280;9002;42.708;23.186;2023-06-22T00:48:00;95358.44;;;23.52;61.57
8703;BME280;9002;42.708;23.186;2023-06-22T00:50:29;95364.44;;;23.43;61.79
8703;BME280;9002;42.708;23.186;2023-06-22T00:53:00;95336.66;;;23.40;61.14
8703;BME280;9002;42.708;23.186;2023-06-22T00:55:30;95362.75;;;23.58;61.24
8703;BME280;9002;42.708;23.186;2023-06-22T00:57:56;95360.06;;;23.53;61.75
8703;BME280;9002;42.708;23.186;2023-06-22T01:00:25;95344.34;;;23.42;61.61
8703;BME280;9002;42.708;23.186;2023-06-22T01:02:53;95368.63;;;23.65;60.89
8703;BME280;9002;42.708;23.186;2023-06-22T01:05:21;95383.16;;;23.41;62.01
8703;BME280;9002;42.708;23.186;2023-06-22T01:07:58;95357.16;;;23.28;61.70
8703;BME280;9002;42.708;23.186;2023-06-22T01:10:36;95370.22;;;23.39;61.05
8703;BME280;9002;42.708;23.186;2023-06-22T01:13:10;95367.56;;;23.13;62.21
8703;BME280;9002;42.708;23.186;2023-06-22T01:15:45;95374.53;;;23.24;61.54
8703;BME280;9002;42.708;23.186;2023-06-22T01:18:16;95370.25;;;23.45;61.20
8703;BME280;9002;42.708;23.186;2023-06-22T01:20:44;95363.56;;;23.59;60.52
8703;BME280;9002;42.708;23.186;2023-06-22T01:23:20;95369.47;;;23.76;60.09
8703;BME280;9002;42.708;23.186;2023-06-22T01:25:56;95375.66;;;23.55;60.17
8703;BME280;9002;42.708;23.186;2023-06-22T01:28:39;95373.56;;;23.57;59.95
8703;BME280;9002;42.708;23.186;2023-06-22T01:31:08;95378.78;;;23.52;59.03
8703;BME280;9002;42.708;23.186;2023-06-22T01:33:39;95383.31;;;23.29;60.92
8703;BME280;9002;42.708;23.186;2023-06-22T01:36:08;95381.63;;;22.91;62.18
8703;BME280;9002;42.708;23.186;2023-06-22T01:38:36;95382.47;;;22.97;62.03
8703;BME280;9002;42.708;23.186;2023-06-22T01:41:04;95374.44;;;22.87;62.49
8703;BME280;9002;42.708;23.186;2023-06-22T01:43:32;95390.59;;;22.73;63.51
8703;BME280;9002;42.708;23.186;2023-06-22T01:46:01;95393.38;;;23.05;62.45
8703;BME280;9002;42.708;23.186;2023-06-22T01:48:28;95384.63;;;23.00;62.49
8703;BME280;9002;42.708;23.186;2023-06-22T01:50:55;95386.59;;;22.88;63.16
8703;BME280;9002;42.708;23.186;2023-06-22T01:53:23;95391.50;;;23.01;62.60
8703;BME280;9002;42.708;23.186;2023-06-22T01:55:50;95356.78;;;22.27;64.47
8703;BME280;9002;42.708;23.186;2023-06-22T01:58:17;95387.00;;;22.80;63.19
8703;BME280;9002;42.708;23.186;2023-06-22T02:00:51;95394.94;;;22.80;63.49
8703;BME280;9002;42.708;23.186;2023-06-22T02:03:22;95397.94;;;23.15;61.79
8703;BME280;9002;42.708;23.186;2023-06-22T02:05:54;95407.03;;;22.97;62.31
8703;BME280;9002;42.708;23.186;2023-06-22T02:08:26;95397.66;;;22.68;63.33
8703;BME280;9002;42.708;23.186;2023-06-22T02:10:55;95382.19;;;22.77;61.75
8703;BME280;9002;42.708;23.186;2023-06-22T02:13:24;95404.78;;;22.67;61.28
8703;BME280;9002;42.708;23.186;2023-06-22T02:15:53;95396.97;;;22.56;62.03
8703;BME280;9002;42.708;23.186;2023-06-22T02:18:20;95394.34;;;22.00;63.53
8703;BME280;9002;42.708;23.186;2023-06-22T02:20:47;95398.38;;;21.24;64.80
8703;BME280;9002;42.708;23.186;2023-06-22T02:23:14;95388.28;;;21.50;63.55
8703;BME280;9002;42.708;23.186;2023-06-22T02:25:40;95401.75;;;21.36;64.95
8703;BME280;9002;42.708;23.186;2023-06-22T02:28:09;95398.66;;;21.73;63.86
8703;BME280;9002;42.708;23.186;2023-06-22T02:30:37;95392.84;;;22.04;63.19
8703;BME280;9002;42.708;23.186;2023-06-22T02:33:05;95379.25;;;21.96;63.36
8703;BME280;9002;42.708;23.186;2023-06-22T02:35:32;95389.97;;;21.56;65.21
8703;BME280;9002;42.708;23.186;2023-06-22T02:38:02;95394.34;;;21.50;64.68
8703;BME280;9002;42.708;23.186;2023-06-22T02:40:29;95374.88;;;21.34;65.09
8703;BME280;9002;42.708;23.186;2023-06-22T02:42:57;95384.50;;;21.46;65.19
8703;BME280;9002;42.708;23.186;2023-06-22T02:45:27;95392.56;;;21.22;66.72
8703;BME280;9002;42.708;23.186;2023-06-22T02:47:55;95400.38;;;21.05;67.73
8703;BME280;9002;42.708;23.186;2023-06-22T02:50:23;95406.16;;;21.19;67.06
8703;BME280;9002;42.708;23.186;2023-06-22T02:52:51;95372.94;;;21.30;66.26
8703;BME280;9002;42.708;23.186;2023-06-22T02:55:17;95396.66;;;21.63;65.96
8703;BME280;9002;42.708;23.186;2023-06-22T02:57:44;95397.94;;;21.61;65.23
8703;BME280;9002;42.708;23.186;2023-06-22T03:00:13;95389.72;;;21.57;65.50
8703;BME280;9002;42.708;23.186;2023-06-22T03:02:43;95407.16;;;21.92;64.63
8703;BME280;9002;42.708;23.186;2023-06-22T03:05:10;95399.59;;;21.50;66.09
8703;BME280;9002;42.708;23.186;2023-06-22T03:10:23;95408.16;;;22.24;63.72
8703;BME280;9002;42.708;23.186;2023-06-22T03:12:50;95412.16;;;22.27;62.93
8703;BME280;9002;42.708;23.186;2023-06-22T03:15:17;95413.72;;;22.45;62.64
8703;BME280;9002;42.708;23.186;2023-06-22T03:17:44;95351.31;;;21.28;65.07
8703;BME280;9002;42.708;23.186;2023-06-22T03:20:11;95409.38;;;21.83;63.82
8703;BME280;9002;42.708;23.186;2023-06-22T03:22:39;95431.91;;;22.07;63.65
8703;BME280;9002;42.708;23.186;2023-06-22T03:25:07;95437.34;;;22.18;63.94
8703;BME280;9002;42.708;23.186;2023-06-22T03:27:39;95385.88;;;22.32;62.05
8703;BME280;9002;42.708;23.186;2023-06-22T03:30:08;95430.28;;;22.62;62.05
8703;BME280;9002;42.708;23.186;2023-06-22T03:32:35;95434.22;;;22.59;62.36
8703;BME280;9002;42.708;23.186;2023-06-22T03:35:03;95437.56;;;22.33;63.19
8703;BME280;9002;42.708;23.186;2023-06-22T03:37:31;95392.41;;;21.46;64.92
8703;BME280;9002;42.708;23.186;2023-06-22T03:39:58;95440.56;;;21.58;65.38
8703;BME280;9002;42.708;23.186;2023-06-22T03:45:02;95455.59;;;21.46;67.04
8703;BME280;9002;42.708;23.186;2023-06-22T03:47:29;95444.94;;;21.52;66.44
8703;BME280;9002;42.708;23.186;2023-06-22T03:49:56;95445.44;;;21.66;65.96
8703;BME280;9002;42.708;23.186;2023-06-22T03:52:22;95460.94;;;21.79;65.97
8703;BME280;9002;42.708;23.186;2023-06-22T03:54:50;95464.03;;;21.59;66.52
8703;BME280;9002;42.708;23.186;2023-06-22T03:57:17;95461.69;;;21.06;68.65
8703;BME280;9002;42.708;23.186;2023-06-22T03:59:44;95450.50;;;20.99;68.47
8703;BME280;9002;42.708;23.186;2023-06-22T04:02:13;95444.75;;;21.02;68.86
8703;BME280;9002;42.708;23.186;2023-06-22T04:04:39;95461.88;;;21.16;68.24
8703;BME280;9002;42.708;23.186;2023-06-22T04:07:06;95467.38;;;21.26;67.61
8703;BME280;9002;42.708;23.186;2023-06-22T04:09:34;95465.88;;;21.19;67.83
8703;BME280;9002;42.708;23.186;2023-06-22T04:12:01;95452.97;;;21.46;66.54
8703;BME280;9002;42.708;23.186;2023-06-22T04:14:28;95443.00;;;21.48;66.95
8703;BME280;9002;42.708;23.186;2023-06-22T04:19:31;95447.16;;;22.05;64.88
8703;BME280;9002;42.708;23.186;2023-06-22T04:21:58;95431.25;;;22.34;63.44
8703;BME280;9002;42.708;23.186;2023-06-22T04:24:25;95425.81;;;22.40;63.03
8703;BME280;9002;42.708;23.186;2023-06-22T04:26:52;95421.25;;;22.36;63.81
8703;BME280;9002;42.708;23.186;2023-06-22T04:29:20;95422.44;;;22.67;62.49
8703;BME280;9002;42.708;23.186;2023-06-22T04:31:55;95412.53;;;22.96;61.12
8703;BME280;9002;42.708;23.186;2023-06-22T04:34:24;95427.22;;;23.09;61.22
8703;BME280;9002;42.708;23.186;2023-06-22T04:36:54;95425.88;;;23.06;61.11
8703;BME280;9002;42.708;23.186;2023-06-22T04:39:21;95440.91;;;22.84;62.31
8703;BME280;9002;42.708;23.186;2023-06-22T04:41:48;95430.34;;;22.84;62.37
8703;BME280;9002;42.708;23.186;2023-06-22T04:44:17;95432.75;;;23.07;61.07
8703;BME280;9002;42.708;23.186;2023-06-22T04:46:50;95424.63;;;22.92;61.75
8703;BME280;9002;42.708;23.186;2023-06-22T04:49:20;95434.38;;;23.13;60.92
8703;BME280;9002;42.708;23.186;2023-06-22T04:51:47;95432.75;;;23.34;59.92
8703;BME280;9002;42.708;23.186;2023-06-22T04:54:15;95408.50;;;23.15;59.69
8703;BME280;9002;42.708;23.186;2023-06-22T04:56:42;95441.56;;;23.45;59.85
8703;BME280;9002;42.708;23.186;2023-06-22T04:59:12;95449.66;;;23.11;60.96
8703;BME280;9002;42.708;23.186;2023-06-22T05:01:38;95443.34;;;22.90;61.98
8703;BME280;9002;42.708;23.186;2023-06-22T05:04:05;95450.69;;;23.32;60.24
8703;BME280;9002;42.708;23.186;2023-06-22T05:06:33;95445.31;;;23.49;58.72
8703;BME280;9002;42.708;23.186;2023-06-22T05:09:00;95436.53;;;23.70;57.98
8703;BME280;9002;42.708;23.186;2023-06-22T05:11:29;95442.81;;;23.91;57.30
8703;BME280;9002;42.708;23.186;2023-06-22T05:13:56;95442.47;;;23.82;57.46
8703;BME280;9002;42.708;23.186;2023-06-22T05:16:23;95435.00;;;24.06;57.12
8703;BME280;9002;42.708;23.186;2023-06-22T05:18:54;95442.13;;;23.74;57.37
8703;BME280;9002;42.708;23.186;2023-06-22T05:21:22;95393.03;;;23.24;58.30
8703;BME280;9002;42.708;23.186;2023-06-22T05:23:50;95429.00;;;23.84;56.91
8703;BME280;9002;42.708;23.186;2023-06-22T05:26:17;95428.50;;;24.19;56.32
8703;BME280;9002;42.708;23.186;2023-06-22T05:28:46;95424.00;;;24.19;56.24
8703;BME280;9002;42.708;23.186;2023-06-22T05:31:14;95442.00;;;23.90;57.87
8703;BME280;9002;42.708;23.186;2023-06-22T05:33:41;95449.94;;;23.90;58.22
8703;BME280;9002;42.708;23.186;2023-06-22T05:36:08;95454.25;;;24.33;57.13
8703;BME280;9002;42.708;23.186;2023-06-22T05:38:35;95452.84;;;24.58;56.38
8703;BME280;9002;42.708;23.186;2023-06-22T05:41:02;95460.69;;;24.95;55.03
8703;BME280;9002;42.708;23.186;2023-06-22T05:43:29;95466.72;;;24.85;54.45
8703;BME280;9002;42.708;23.186;2023-06-22T05:45:58;95468.63;;;24.95;54.62
8703;BME280;9002;42.708;23.186;2023-06-22T05:48:25;95468.50;;;24.64;55.30
8703;BME280;9002;42.708;23.186;2023-06-22T05:50:52;95471.44;;;24.26;56.65
8703;BME280;9002;42.708;23.186;2023-06-22T05:53:19;95469.78;;;24.62;55.91
8703;BME280;9002;42.708;23.186;2023-06-22T05:55:46;95469.53;;;24.63;55.61
8703;BME280;9002;42.708;23.186;2023-06-22T05:58:13;95471.22;;;24.80;54.89
8703;BME280;9002;42.708;23.186;2023-06-22T06:03:25;95471.38;;;25.10;53.68
8703;BME280;9002;42.708;23.186;2023-06-22T06:05:54;95463.81;;;25.49;52.13
8703;BME280;9002;42.708;23.186;2023-06-22T06:08:21;95460.09;;;25.45;51.74
8703;BME280;9002;42.708;23.186;2023-06-22T06:10:48;95458.47;;;25.29;53.05
8703;BME280;9002;42.708;23.186;2023-06-22T06:13:15;95439.69;;;25.36;52.30
8703;BME280;9002;42.708;23.186;2023-06-22T06:15:42;95461.16;;;24.77;54.59
8703;BME280;9002;42.708;23.186;2023-06-22T06:18:09;95442.41;;;24.41;56.02
8703;BME280;9002;42.708;23.186;2023-06-22T06:20:37;95448.94;;;25.33;53.68
8703;BME280;9002;42.708;23.186;2023-06-22T06:23:04;95442.50;;;25.09;54.81
8703;BME280;9002;42.708;23.186;2023-06-22T06:25:30;95451.91;;;25.57;53.62
8703;BME280;9002;42.708;23.186;2023-06-22T06:27:57;95451.88;;;25.47;54.20
8703;BME280;9002;42.708;23.186;2023-06-22T06:30:24;95459.88;;;25.62;54.10
8703;BME280;9002;42.708;23.186;2023-06-22T06:32:51;95458.06;;;26.18;51.64
8703;BME280;9002;42.708;23.186;2023-06-22T06:37:56;95448.53;;;26.38;51.03
8703;BME280;9002;42.708;23.186;2023-06-22T06:40:23;95445.59;;;26.49;50.71
8703;BME280;9002;42.708;23.186;2023-06-22T06:42:50;95440.97;;;26.90;49.61
8703;BME280;9002;42.708;23.186;2023-06-22T06:45:18;95427.47;;;26.72;49.84
8703;BME280;9002;42.708;23.186;2023-06-22T06:47:45;95415.03;;;26.62;50.03
8703;BME280;9002;42.708;23.186;2023-06-22T06:50:12;95440.84;;;26.41;50.60
8703;BME280;9002;42.708;23.186;2023-06-22T06:52:39;95433.13;;;26.45;51.31
8703;BME280;9002;42.708;23.186;2023-06-22T06:55:09;95421.03;;;26.93;50.01
8703;BME280;9002;42.708;23.186;2023-06-22T06:57:37;95421.41;;;27.75;48.42
8703;BME280;9002;42.708;23.186;2023-06-22T07:00:05;95427.19;;;28.21;46.81
8703;BME280;9002;42.708;23.186;2023-06-22T07:02:38;95421.06;;;28.49;46.40
8703;BME280;9002;42.708;23.186;2023-06-22T07:05:06;95419.59;;;28.62;45.85
8703;BME280;9002;42.708;23.186;2023-06-22T07:07:33;95393.41;;;28.93;44.42
8703;BME280;9002;42.708;23.186;2023-06-22T07:10:00;95421.28;;;29.24;44.63
8703;BME280;9002;42.708;23.186;2023-06-22T07:12:30;95414.72;;;29.17;44.27
8703;BME280;9002;42.708;23.186;2023-06-22T07:15:01;95418.28;;;28.59;45.18
8703;BME280;9002;42.708;23.186;2023-06-22T07:17:28;95417.09;;;28.18;46.12
8703;BME280;9002;42.708;23.186;2023-06-22T07:19:55;95423.78;;;28.44;45.72
8703;BME280;9002;42.708;23.186;2023-06-22T07:22:22;95426.38;;;28.49;45.76
8703;BME280;9002;42.708;23.186;2023-06-22T07:24:48;95422.03;;;28.58;45.23
8703;BME280;9002;42.708;23.186;2023-06-22T07:27:15;95424.78;;;28.48;45.86
8703;BME280;9002;42.708;23.186;2023-06-22T07:29:46;95406.06;;;28.58;45.20
8703;BME280;9002;42.708;23.186;2023-06-22T07:32:12;95412.81;;;28.75;45.12
8703;BME280;9002;42.708;23.186;2023-06-22T07:34:39;95418.63;;;29.01;44.49
8703;BME280;9002;42.708;23.186;2023-06-22T07:37:06;95425.91;;;28.95;44.02
8703;BME280;9002;42.708;23.186;2023-06-22T07:42:02;95428.03;;;28.69;45.15
8703;BME280;9002;42.708;23.186;2023-06-22T07:44:29;95423.94;;;28.29;45.58
8703;BME280;9002;42.708;23.186;2023-06-22T07:46:58;95430.19;;;27.75;47.21
8703;BME280;9002;42.708;23.186;2023-06-22T07:49:24;95428.38;;;28.05;46.06
8703;BME280;9002;42.708;23.186;2023-06-22T07:51:51;95430.34;;;28.52;45.53
8703;BME280;9002;42.708;23.186;2023-06-22T07:54:18;95430.09;;;29.01;44.63
8703;BME280;9002;42.708;23.186;2023-06-22T07:56:46;95426.41;;;28.97;45.44
8703;BME280;9002;42.708;23.186;2023-06-22T07:59:13;95420.66;;;29.09;45.48
8703;BME280;9002;42.708;23.186;2023-06-22T08:01:40;95417.28;;;28.55;46.70
8703;BME280;9002;42.708;23.186;2023-06-22T08:04:08;95418.41;;;28.97;46.28
8703;BME280;9002;42.708;23.186;2023-06-22T08:06:35;95415.59;;;29.50;45.03
8703;BME280;9002;42.708;23.186;2023-06-22T08:09:02;95405.47;;;29.09;45.62
8703;BME280;9002;42.708;23.186;2023-06-22T08:11:28;95404.66;;;29.51;44.98
8703;BME280;9002;42.708;23.186;2023-06-22T08:13:55;95401.34;;;28.98;45.91
8703;BME280;9002;42.708;23.186;2023-06-22T08:16:24;95394.38;;;29.02;46.38
8703;BME280;9002;42.708;23.186;2023-06-22T08:18:50;95396.75;;;28.80;47.19
8703;BME280;9002;42.708;23.186;2023-06-22T08:21:19;95402.06;;;29.04;46.79
8703;BME280;9002;42.708;23.186;2023-06-22T08:23:46;95397.72;;;28.65;46.43
8703;BME280;9002;42.708;23.186;2023-06-22T08:26:12;95394.53;;;28.39;46.16
8703;BME280;9002;42.708;23.186;2023-06-22T08:28:39;95397.50;;;28.04;48.01
8703;BME280;9002;42.708;23.186;2023-06-22T08:31:06;95393.81;;;28.00;48.36
8703;BME280;9002;42.708;23.186;2023-06-22T08:33:33;95394.69;;;27.90;49.10
8703;BME280;9002;42.708;23.186;2023-06-22T08:36:00;95393.41;;;28.16;48.42
8703;BME280;9002;42.708;23.186;2023-06-22T08:38:28;95389.66;;;28.46;48.85
8703;BME280;9002;42.708;23.186;2023-06-22T08:40:55;95392.66;;;29.11;47.24
8703;BME280;9002;42.708;23.186;2023-06-22T08:43:22;95392.09;;;29.52;46.72
8703;BME280;9002;42.708;23.186;2023-06-22T08:45:49;95394.56;;;29.30;46.39
8703;BME280;9002;42.708;23.186;2023-06-22T08:48:16;95396.72;;;29.65;43.79
8703;BME280;9002;42.708;23.186;2023-06-22T08:50:42;95390.97;;;28.97;45.81
8703;BME280;9002;42.708;23.186;2023-06-22T08:53:09;95391.56;;;28.70;47.45
8703;BME280;9002;42.708;23.186;2023-06-22T08:55:37;95386.63;;;29.24;45.32
8703;BME280;9002;42.708;23.186;2023-06-22T08:58:04;95383.06;;;29.85;44.22
8703;BME280;9002;42.708;23.186;2023-06-22T09:00:31;95375.94;;;30.00;43.72
8703;BME280;9002;42.708;23.186;2023-06-22T09:03:00;95374.16;;;30.09;44.02
8703;BME280;9002;42.708;23.186;2023-06-22T09:05:27;95367.19;;;29.43;45.06
8703;BME280;9002;42.708;23.186;2023-06-22T09:07:55;95368.22;;;29.04;45.61
8703;BME280;9002;42.708;23.186;2023-06-22T09:10:24;95369.25;;;29.08;45.18
8703;BME280;9002;42.708;23.186;2023-06-22T09:12:52;95372.53;;;29.43;44.56
8703;BME280;9002;42.708;23.186;2023-06-22T09:15:19;95379.19;;;30.10;42.59
8703;BME280;9002;42.708;23.186;2023-06-22T09:17:46;95368.13;;;30.03;42.18
8703;BME280;9002;42.708;23.186;2023-06-22T09:20:13;95372.47;;;30.13;41.93
8703;BME280;9002;42.708;23.186;2023-06-22T09:22:41;95358.72;;;30.06;42.61
8703;BME280;9002;42.708;23.186;2023-06-22T09:25:08;95374.06;;;29.81;43.54
8703;BME280;9002;42.708;23.186;2023-06-22T09:27:35;95370.25;;;29.69;44.03
8703;BME280;9002;42.708;23.186;2023-06-22T09:30:04;95385.22;;;29.83;43.53
8703;BME280;9002;42.708;23.186;2023-06-22T09:32:32;95382.44;;;30.07;41.45
8703;BME280;9002;42.708;23.186;2023-06-22T09:34:58;95379.94;;;30.43;41.35
8703;BME280;9002;42.708;23.186;2023-06-22T09:37:25;95380.78;;;30.58;40.49
8703;BME280;9002;42.708;23.186;2023-06-22T09:39:52;95374.53;;;31.17;39.82
8703;BME280;9002;42.708;23.186;2023-06-22T09:42:19;95381.13;;;30.51;42.13
8703;BME280;9002;42.708;23.186;2023-06-22T09:44:46;95372.75;;;30.71;41.45
8703;BME280;9002;42.708;23.186;2023-06-22T09:47:14;95366.69;;;30.93;41.36
8703;BME280;9002;42.708;23.186;2023-06-22T09:49:41;95363.34;;;31.15;38.93
8703;BME280;9002;42.708;23.186;2023-06-22T09:52:08;95368.28;;;30.53;39.95
8703;BME280;9002;42.708;23.186;2023-06-22T09:54:36;95360.72;;;30.28;40.76
8703;BME280;9002;42.708;23.186;2023-06-22T09:57:04;95362.00;;;30.16;41.68
8703;BME280;9002;42.708;23.186;2023-06-22T09:59:30;95362.84;;;29.98;41.32
8703;BME280;9002;42.708;23.186;2023-06-22T10:01:57;95367.75;;;29.91;41.57
8703;BME280;9002;42.708;23.186;2023-06-22T10:04:25;95349.47;;;30.44;40.53
8703;BME280;9002;42.708;23.186;2023-06-22T10:06:53;95357.69;;;30.75;39.97
8703;BME280;9002;42.708;23.186;2023-06-22T10:09:20;95350.28;;;30.86;39.40
8703;BME280;9002;42.708;23.186;2023-06-22T10:11:46;95341.66;;;31.39;38.94
8703;BME280;9002;42.708;23.186;2023-06-22T10:14:13;95339.09;;;30.43;39.00
8703;BME280;9002;42.708;23.186;2023-06-22T10:16:40;95345.41;;;31.02;39.04
8703;BME280;9002;42.708;23.186;2023-06-22T10:19:07;95338.28;;;31.33;37.60
8703;BME280;9002;42.708;23.186;2023-06-22T10:21:35;95332.22;;;31.05;38.15
8703;BME280;9002;42.708;23.186;2023-06-22T10:24:03;95338.88;;;30.80;38.97
8703;BME280;9002;42.708;23.186;2023-06-22T10:26:32;95341.69;;;30.62;39.10
8703;BME280;9002;42.708;23.186;2023-06-22T10:28:59;95305.94;;;30.71;38.51
8703;BME280;9002;42.708;23.186;2023-06-22T10:31:26;95331.28;;;31.60;37.71
8703;BME280;9002;42.708;23.186;2023-06-22T10:33:53;95335.38;;;32.10;37.19
8703;BME280;9002;42.708;23.186;2023-06-22T10:36:20;95331.69;;;31.98;36.87
8703;BME280;9002;42.708;23.186;2023-06-22T10:38:49;95300.53;;;32.02;37.09
8703;BME280;9002;42.708;23.186;2023-06-22T10:41:16;95328.75;;;32.39;35.52
8703;BME280;9002;42.708;23.186;2023-06-22T10:43:42;95326.97;;;32.26;35.65
8703;BME280;9002;42.708;23.186;2023-06-22T10:48:50;95321.34;;;31.82;36.70
8703;BME280;9002;42.708;23.186;2023-06-22T10:51:17;95315.56;;;32.60;35.51
8703;BME280;9002;42.708;23.186;2023-06-22T10:53:43;95319.50;;;32.54;36.93
8703;BME280;9002;42.708;23.186;2023-06-22T10:56:12;95318.84;;;32.48;36.18
8703;BME280;9002;42.708;23.186;2023-06-22T10:58:38;95315.91;;;32.67;36.24
8703;BME280;9002;42.708;23.186;2023-06-22T11:01:05;95304.94;;;32.86;35.54
8703;BME280;9002;42.708;23.186;2023-06-22T11:03:32;95278.38;;;32.18;37.05
8703;BME280;9002;42.708;23.186;2023-06-22T11:05:59;95307.47;;;32.42;36.31
8703;BME280;9002;42.708;23.186;2023-06-22T11:08:26;95286.19;;;33.03;35.71
8703;BME280;9002;42.708;23.186;2023-06-22T11:10:53;95317.31;;;33.47;35.20
8703;BME280;9002;42.708;23.186;2023-06-22T11:13:21;95311.72;;;33.78;34.25
8703;BME280;9002;42.708;23.186;2023-06-22T11:15:48;95311.66;;;34.12;34.22
8703;BME280;9002;42.708;23.186;2023-06-22T11:18:15;95297.72;;;34.19;33.98
8703;BME280;9002;42.708;23.186;2023-06-22T11:23:21;95280.94;;;34.31;33.06
8703;BME280;9002;42.708;23.186;2023-06-22T11:25:48;95290.53;;;34.99;32.68
8703;BME280;9002;42.708;23.186;2023-06-22T11:28:15;95286.94;;;34.66;31.20
8703;BME280;9002;42.708;23.186;2023-06-22T11:30:43;95290.47;;;34.78;31.42
8703;BME280;9002;42.708;23.186;2023-06-22T11:33:10;95285.94;;;34.70;31.62
8703;BME280;9002;42.708;23.186;2023-06-22T11:35:37;95277.75;;;34.67;32.67
8703;BME280;9002;42.708;23.186;2023-06-22T11:38:04;95258.22;;;33.56;33.02
8703;BME280;9002;42.708;23.186;2023-06-22T11:40:31;95284.34;;;34.49;31.54
8703;BME280;9002;42.708;23.186;2023-06-22T11:42:57;95289.91;;;33.97;33.31
8703;BME280;9002;42.708;23.186;2023-06-22T11:45:24;95281.38;;;34.41;32.46
8703;BME280;9002;42.708;23.186;2023-06-22T11:47:52;95286.50;;;34.17;33.07
8703;BME280;9002;42.708;23.186;2023-06-22T11:50:19;95278.16;;;33.46;34.00
8703;BME280;9002;42.708;23.186;2023-06-22T11:52:46;95267.69;;;33.53;33.78
8703;BME280;9002;42.708;23.186;2023-06-22T11:55:13;95271.84;;;33.33;33.69
8703;BME280;9002;42.708;23.186;2023-06-22T11:57:53;95268.84;;;33.35;34.25
8703;BME280;9002;42.708;23.186;2023-06-22T12:00:20;95274.03;;;33.14;34.32
8703;BME280;9002;42.708;23.186;2023-06-22T12:02:49;95279.56;;;33.18;34.83
8703;BME280;9002;42.708;23.186;2023-06-22T12:05:19;95278.06;;;32.68;35.84
8703;BME280;9002;42.708;23.186;2023-06-22T12:07:46;95281.66;;;31.53;38.57
8703;BME280;9002;42.708;23.186;2023-06-22T12:10:13;95286.59;;;31.02;39.78
8703;BME280;9002;42.708;23.186;2023-06-22T12:12:40;95289.34;;;30.61;40.20
8703;BME280;9002;42.708;23.186;2023-06-22T12:15:08;95288.53;;;30.33;41.14
8703;BME280;9002;42.708;23.186;2023-06-22T12:17:35;95298.41;;;30.05;41.52
8703;BME280;9002;42.708;23.186;2023-06-22T12:20:03;95296.41;;;29.97;43.47
8703;BME280;9002;42.708;23.186;2023-06-22T12:22:32;95246.53;;;29.32;44.80
8703;BME280;9002;42.708;23.186;2023-06-22T12:24:59;95304.84;;;29.20;46.30
8703;BME280;9002;42.708;23.186;2023-06-22T12:27:26;95310.69;;;28.60;48.61
8703;BME280;9002;42.708;23.186;2023-06-22T12:29:53;95332.69;;;27.94;52.33
8703;BME280;9002;42.708;23.186;2023-06-22T12:32:19;95332.84;;;27.40;54.21
8703;BME280;9002;42.708;23.186;2023-06-22T12:34:46;95332.72;;;27.16;56.14
8703;BME280;9002;42.708;23.186;2023-06-22T12:37:13;95349.72;;;26.61;58.56
8703;BME280;9002;42.708;23.186;2023-06-22T12:39:41;95351.16;;;26.13;60.68
8703;BME280;9002;42.708;23.186;2023-06-22T12:42:08;95350.44;;;25.87;61.23
8703;BME280;9002;42.708;23.186;2023-06-22T12:44:37;95335.56;;;25.86;62.08
8703;BME280;9002;42.708;23.186;2023-06-22T12:47:05;95344.78;;;26.19;61.51
8703;BME280;9002;42.708;23.186;2023-06-22T12:49:32;95346.19;;;26.81;59.46
8703;BME280;9002;42.708;23.186;2023-06-22T12:51:59;95368.50;;;26.80;56.38
8703;BME280;9002;42.708;23.186;2023-06-22T12:56:56;95375.06;;;27.03;56.39
8703;BME280;9002;42.708;23.186;2023-06-22T12:59:23;95363.75;;;27.26;55.72
8703;BME280;9002;42.708;23.186;2023-06-22T13:01:49;95360.75;;;27.38;55.78
8703;BME280;9002;42.708;23.186;2023-06-22T13:04:16;95349.38;;;26.83;57.59
8703;BME280;9002;42.708;23.186;2023-06-22T13:06:44;95361.31;;;26.80;58.95
8703;BME280;9002;42.708;23.186;2023-06-22T13:09:13;95361.34;;;26.75;58.83
8703;BME280;9002;42.708;23.186;2023-06-22T13:11:40;95359.44;;;26.96;57.37
8703;BME280;9002;42.708;23.186;2023-06-22T13:14:08;95378.56;;;26.83;57.39
8703;BME280;9002;42.708;23.186;2023-06-22T13:16:35;95380.84;;;26.40;59.28
8703;BME280;9002;42.708;23.186;2023-06-22T13:19:03;95374.38;;;26.67;59.49
8703;BME280;9002;42.708;23.186;2023-06-22T13:21:30;95368.03;;;27.22;57.78
8703;BME280;9002;42.708;23.186;2023-06-22T13:23:58;95373.81;;;26.80;58.75
8703;BME280;9002;42.708;23.186;2023-06-22T13:26:24;95380.72;;;26.76;58.87
8703;BME280;9002;42.708;23.186;2023-06-22T13:31:28;95369.44;;;26.45;57.99
8703;BME280;9002;42.708;23.186;2023-06-22T13:33:55;95351.53;;;26.76;55.88
8703;BME280;9002;42.708;23.186;2023-06-22T13:36:21;95347.00;;;27.30;54.53
8703;BME280;9002;42.708;23.186;2023-06-22T13:38:49;95345.84;;;27.03;54.46